Lance — LGKI — position and weather

sailwx.info

Track history (hours):
 
Tides and Currents Weather Stations Pressure Air Temp Water Temp Dewpoint Dewpoint Depression Visibility Wind Speed Wind Dir Waves Ship Positions

Oceanographic research ship Lance (Norway)

Detailed information on ship capabilities available from University of Delaware's Ocean Information Center and ARCUS's ALIAS (Arctic Logistics Information and Support) project.

Last reported at 2019-Apr-07 02:17 UTC. Time now 2019-Apr-18 20:23 UTC.
Position N 69°51' E 013°53'.
Warning: this ship's position is 11 days out of date.

Type: Ship. MMSI: 258236000.

Date/timePositionNaut miles runAvg speedWind from/ knotsBaromVisibWave heightAir tempDewpointWater temp
2019-Apr-07 02:17N 69°51' E 013°53'4 9.5
2019-Apr-07 01:51N 69°50' E 014°05'3 9.4
2019-Apr-07 01:30N 69°50' E 014°14'4 8.9
2019-Apr-07 01:00N 69°49' E 014°27'4 8.7
2019-Apr-07 00:30N 69°49' E 014°40'4 8.8
2019-Apr-07 00:00N 69°49' E 014°52'4 8.7
2019-Apr-06 23:30N 69°48' E 015°05'5 9.5
2019-Apr-06 23:00N 69°48' E 015°19'4 9.0
2019-Apr-06 22:30N 69°47' E 015°32'4 7.8
2019-Apr-06 21:57N 69°47' E 015°44'4 7.7
2019-Apr-06 21:30N 69°46' E 015°54'4 8.7
2019-Apr-06 21:00N 69°46' E 016°06'4 8.2
2019-Apr-06 20:30N 69°46' E 016°18'3 6.9
2019-Apr-06 20:00N 69°45' E 016°28'4 7.2
2019-Apr-06 19:30N 69°44' E 016°38'4 7.9
2019-Apr-06 19:00N 69°43' E 016°49'4 7.9
2019-Apr-06 18:30N 69°43' E 017°00'4 8.1
2019-Apr-06 18:00N 69°42' E 017°12'4 8.5
2019-Apr-06 17:28N 69°41' E 017°25'4 8.7
2019-Apr-06 17:00N 69°41' E 017°37'4 8.2
2019-Apr-06 16:30N 69°39' E 017°48'4 7.9
2019-Apr-06 16:00N 69°36' E 017°53'4 8.8
2019-Apr-06 15:30N 69°32' E 018°01'4 8.8
2019-Apr-06 15:00N 69°31' E 018°13'5 9.1
2019-Apr-06 14:30N 69°31' E 018°25'4 8.9
2019-Apr-06 14:00N 69°33' E 018°38'1 1.2
2019-Apr-06 13:30N 69°33' E 018°39'4 7.2
2019-Apr-06 12:59N 69°34' E 018°49'4 9.1
2019-Apr-06 12:30N 69°38' E 018°56'3 5.1
2019-Apr-06 12:00N 69°40' E 018°59'0 0.0
2019-Apr-06 11:30N 69°40' E 018°59'0 0.0
2019-Apr-06 11:00N 69°40' E 018°59'0 0.0
2019-Apr-06 10:30N 69°40' E 018°59'0 0.0
2019-Apr-06 10:00N 69°40' E 018°59'0 0.0
2019-Apr-06 09:30N 69°40' E 018°59'0 0.0
2019-Apr-06 09:00N 69°40' E 018°59'0 0.0
2019-Apr-06 08:30N 69°40' E 018°59'0 0.0
2019-Apr-06 08:00N 69°40' E 018°59'0 0.0
2019-Apr-06 07:30N 69°40' E 018°59'1 2.3
2019-Apr-06 07:00N 69°39' E 018°58'0 0.0
2019-Apr-06 06:30N 69°39' E 018°58'0 0.0
2019-Apr-06 05:59N 69°39' E 018°58'0 0.0
2019-Apr-06 05:30N 69°39' E 018°58'0 0.0
2019-Apr-06 05:00N 69°39' E 018°58'0 0.0
2019-Apr-06 04:30N 69°39' E 018°58'0 0.0
2019-Apr-06 04:00N 69°39' E 018°58'0 0.0
2019-Apr-06 03:30N 69°39' E 018°58'0 0.0
2019-Apr-06 03:00N 69°39' E 018°58'0 0.0
2019-Apr-06 02:30N 69°39' E 018°58'0 0.0
2019-Apr-06 02:00N 69°39' E 018°58'0 0.0
2019-Apr-06 01:30N 69°39' E 018°58'0 0.0
2019-Apr-06 01:00N 69°39' E 018°58'0 0.0
2019-Apr-06 00:30N 69°39' E 018°58'0 0.0
2019-Apr-06 00:00N 69°39' E 018°58'0 0.0
2019-Apr-05 23:30N 69°39' E 018°58'0 0.0
2019-Apr-05 23:00N 69°39' E 018°58'0 0.0
2019-Apr-05 22:29N 69°39' E 018°58'0 0.0
2019-Apr-05 22:00N 69°39' E 018°58'0 0.0
2019-Apr-05 21:30N 69°39' E 018°58'0 0.0
2019-Apr-05 21:00N 69°39' E 018°58'0 0.0
2019-Apr-05 20:30N 69°39' E 018°58'0 0.0
2019-Apr-05 20:00N 69°39' E 018°58'0 0.0
2019-Apr-05 19:29N 69°39' E 018°58'0 0.0
2019-Apr-05 19:00N 69°39' E 018°58'0 0.0
2019-Apr-05 18:30N 69°39' E 018°58'0 0.0
2019-Apr-05 18:00N 69°39' E 018°58'0 0.0
2019-Apr-05 17:30N 69°39' E 018°58'0 0.0
2019-Apr-05 17:00N 69°39' E 018°58'0 0.0
2019-Apr-05 16:29N 69°39' E 018°58'0 0.0
2019-Apr-05 16:00N 69°39' E 018°58'1 2.9
2019-Apr-05 15:30N 69°41' E 018°59'0 0.6
2019-Apr-05 15:00N 69°40' E 018°59'0 0.0
2019-Apr-05 14:30N 69°40' E 018°59'0 0.0
2019-Apr-05 14:00N 69°40' E 018°59'0 0.0
2019-Apr-05 13:30N 69°40' E 018°59'0 0.0
2019-Apr-05 13:00N 69°40' E 018°59'0 0.0
2019-Apr-05 12:30N 69°40' E 018°59'0 0.0
2019-Apr-05 12:00N 69°40' E 018°59'0 0.0
2019-Apr-05 11:30N 69°40' E 018°59'0 0.0
2019-Apr-05 11:00N 69°40' E 018°59'0 0.0
2019-Apr-05 10:30N 69°40' E 018°59'0 0.0
2019-Apr-05 10:00N 69°40' E 018°59'0 0.0
2019-Apr-05 09:30N 69°40' E 018°59'0 0.0
2019-Apr-05 09:00N 69°40' E 018°59'0 0.0
2019-Apr-05 08:30N 69°40' E 018°59'0 0.0
2019-Apr-05 08:00N 69°40' E 018°59'0 0.0
2019-Apr-05 07:30N 69°40' E 018°59'0 0.0
2019-Apr-05 07:00N 69°40' E 018°59'0 0.0
2019-Apr-05 06:30N 69°40' E 018°59'0 0.0
2019-Apr-05 06:00N 69°40' E 018°59'0 0.0
2019-Apr-05 05:29N 69°40' E 018°59'0 0.0
2019-Apr-05 05:00N 69°40' E 018°59'0 0.0
2019-Apr-05 04:30N 69°40' E 018°59'0 0.0
2019-Apr-05 04:00N 69°40' E 018°59'0 0.0
2019-Apr-05 03:30N 69°40' E 018°59'0 0.0
2019-Apr-05 03:00N 69°40' E 018°59'0 0.0
2019-Apr-05 02:30N 69°40' E 018°59'0 0.0
2019-Apr-05 02:00N 69°40' E 018°59'0 0.0
2019-Apr-05 01:30N 69°40' E 018°59'0 0.0
2019-Apr-05 01:00N 69°40' E 018°59'0 0.0
2019-Apr-05 00:30N 69°40' E 018°59'0 0.0
2019-Apr-04 23:59N 69°40' E 018°59'0 0.0
2019-Apr-04 23:30N 69°40' E 018°59'0 0.0
2019-Apr-04 23:00N 69°40' E 018°59'0 0.0
2019-Apr-04 22:30N 69°40' E 018°59'0 0.0
2019-Apr-04 22:00N 69°40' E 018°59'0 0.0
2019-Apr-04 21:30N 69°40' E 018°59'0 0.0
2019-Apr-04 21:00N 69°40' E 018°59'0 0.0
2019-Apr-04 20:30N 69°40' E 018°59'0 0.0
2019-Apr-04 20:00N 69°40' E 018°59'0 0.0
2019-Apr-04 19:29N 69°40' E 018°59'0 0.0
2019-Apr-04 19:00N 69°40' E 018°59'0 0.0
2019-Apr-04 18:30N 69°40' E 018°59'0 0.0
2019-Apr-04 18:00N 69°40' E 018°59'0 0.0
2019-Apr-04 17:30N 69°40' E 018°59'0 0.0
2019-Apr-04 17:00N 69°40' E 018°59'0 0.0
2019-Apr-04 16:29N 69°40' E 018°59'0 0.0
2019-Apr-04 16:00N 69°40' E 018°59'0 0.0
2019-Apr-04 15:30N 69°40' E 018°59'0 0.0
2019-Apr-04 15:00N 69°40' E 018°59'0 0.0
2019-Apr-04 14:30N 69°40' E 018°59'0 0.0
2019-Apr-04 14:00N 69°40' E 018°59'0 0.0
2019-Apr-04 13:30N 69°40' E 018°59'0 0.0
2019-Apr-04 13:00N 69°40' E 018°59'0 0.0
2019-Apr-04 12:30N 69°40' E 018°59'0 0.0
2019-Apr-04 12:00N 69°40' E 018°59'0 0.0
2019-Apr-04 11:30N 69°40' E 018°59'0 0.0
2019-Apr-04 11:00N 69°40' E 018°59'0 0.0
2019-Apr-04 10:29N 69°40' E 018°59'0 0.0
2019-Apr-04 10:00N 69°40' E 018°59'0 0.0
2019-Apr-04 09:30N 69°40' E 018°59'0 0.0
2019-Apr-04 09:00N 69°40' E 018°59'0 0.0
2019-Apr-04 08:30N 69°40' E 018°59'0 0.0
2019-Apr-04 08:00N 69°40' E 018°59'0 0.0
2019-Apr-04 07:30N 69°40' E 018°59'0 0.0
2019-Apr-04 07:00N 69°40' E 018°59'0 0.0
2019-Apr-04 06:30N 69°40' E 018°59'0 0.0
2019-Apr-04 06:00N 69°40' E 018°59'0 0.0
2019-Apr-04 05:30N 69°40' E 018°59'0 0.0
2019-Apr-04 05:00N 69°40' E 018°59'0 0.0
2019-Apr-04 04:30N 69°40' E 018°59'0 0.0
2019-Apr-04 04:00N 69°40' E 018°59'0 0.0
2019-Apr-04 03:29N 69°40' E 018°59'0 0.0
2019-Apr-04 02:59N 69°40' E 018°59'0 0.0
2019-Apr-04 02:30N 69°40' E 018°59'0 0.0
2019-Apr-04 02:00N 69°40' E 018°59'0 0.0
2019-Apr-04 01:30N 69°40' E 018°59'0 0.0
2019-Apr-04 01:00N 69°40' E 018°59'0 0.0
2019-Apr-04 00:30N 69°40' E 018°59'0 0.0
2019-Apr-04 00:00N 69°40' E 018°59'0 0.0
2019-Apr-03 23:30N 69°40' E 018°59'0 0.0
2019-Apr-03 23:00N 69°40' E 018°59'0 0.0
2019-Apr-03 22:29N 69°40' E 018°59'0 0.0
2019-Apr-03 22:00N 69°40' E 018°59'0 0.0
2019-Apr-03 21:30N 69°40' E 018°59'0 0.0
2019-Apr-03 21:00N 69°40' E 018°59'0 0.0
2019-Apr-03 20:24N 69°40' E 018°59'0 0.0
2019-Apr-03 20:00N 69°40' E 018°59'0 0.0
2019-Apr-03 19:30N 69°40' E 018°59'0 0.0
2019-Apr-03 19:00N 69°40' E 018°59'0 0.0
2019-Apr-03 18:30N 69°40' E 018°59'0 0.0
2019-Apr-03 18:00N 69°40' E 018°59'0 0.0
2019-Apr-03 17:29N 69°40' E 018°59'0 0.0
2019-Apr-03 16:59N 69°40' E 018°59'0 0.0
2019-Apr-03 16:29N 69°40' E 018°59'0 0.0
2019-Apr-03 16:00N 69°40' E 018°59'0 0.0
2019-Apr-03 15:30N 69°40' E 018°59'0 0.0
2019-Apr-03 15:00N 69°40' E 018°59'0 0.0
2019-Apr-03 14:29N 69°40' E 018°59'0 0.0
2019-Apr-03 14:00N 69°40' E 018°59'0 0.0
2019-Apr-03 13:30N 69°40' E 018°59'0 0.0
2019-Apr-03 12:59N 69°40' E 018°59'0 0.0
2019-Apr-03 12:30N 69°40' E 018°59'0 0.0
2019-Apr-03 12:00N 69°40' E 018°59'0 0.0
2019-Apr-03 11:30N 69°40' E 018°59'0 0.0
2019-Apr-03 11:00N 69°40' E 018°59'0 0.0
2019-Apr-03 10:30N 69°40' E 018°59'0 0.0
2019-Apr-03 10:00N 69°40' E 018°59'0 0.0
2019-Apr-03 09:30N 69°40' E 018°59'0 0.0
2019-Apr-03 09:00N 69°40' E 018°59'0 0.0
2019-Apr-03 08:30N 69°40' E 018°59'0 0.0
2019-Apr-03 08:00N 69°40' E 018°59'0 0.0
2019-Apr-03 07:29N 69°40' E 018°59'0 0.0
2019-Apr-03 07:00N 69°40' E 018°59'0 0.0
2019-Apr-03 06:30N 69°40' E 018°59'0 0.0
2019-Apr-03 06:00N 69°40' E 018°59'0 0.0
2019-Apr-03 05:30N 69°40' E 018°59'0 0.0
2019-Apr-03 05:00N 69°40' E 018°59'0 0.0
2019-Apr-03 04:29N 69°40' E 018°59'0 0.0
2019-Apr-03 04:00N 69°40' E 018°59'0 0.0
2019-Apr-03 03:30N 69°40' E 018°59'0 0.0
2019-Apr-03 03:00N 69°40' E 018°59'0 0.0
2019-Apr-03 02:30N 69°40' E 018°59'0 0.0
2019-Apr-03 02:00N 69°40' E 018°59'0 0.0
2019-Apr-03 01:30N 69°40' E 018°59'0 0.0
2019-Apr-03 01:00N 69°40' E 018°59'0 0.0
2019-Apr-03 00:30N 69°40' E 018°59'0 0.0
2019-Apr-03 00:00N 69°40' E 018°59'0 0.0
2019-Apr-02 23:30N 69°40' E 018°59'0 0.0
2019-Apr-02 23:00N 69°40' E 018°59'0 0.0
2019-Apr-02 22:30N 69°40' E 018°59'0 0.0
2019-Apr-02 22:00N 69°40' E 018°59'0 0.0
2019-Apr-02 21:30N 69°40' E 018°59'0 0.0
2019-Apr-02 21:00N 69°40' E 018°59'0 0.0
2019-Apr-02 20:30N 69°40' E 018°59'0 0.0
2019-Apr-02 19:58N 69°40' E 018°59'0 0.0
2019-Apr-02 19:29N 69°40' E 018°59'0 0.0
2019-Apr-02 18:59N 69°40' E 018°59'0 0.0
2019-Apr-02 18:30N 69°40' E 018°59'0 0.0
2019-Apr-02 18:00N 69°40' E 018°59'0 0.0
2019-Apr-02 17:30N 69°40' E 018°59'0 0.0
2019-Apr-02 17:00N 69°40' E 018°59'0 0.0
2019-Apr-02 16:30N 69°40' E 018°59'0 0.0
2019-Apr-02 16:00N 69°40' E 018°59'0 0.0
2019-Apr-02 15:30N 69°40' E 018°59'0 0.0
2019-Apr-02 15:00N 69°40' E 018°59'0 0.0
2019-Apr-02 14:30N 69°40' E 018°59'0 0.0
2019-Apr-02 14:00N 69°40' E 018°59'0 0.0
2019-Apr-02 13:29N 69°40' E 018°59'0 0.0
2019-Apr-02 13:00N 69°40' E 018°59'0 0.0
2019-Apr-02 12:30N 69°40' E 018°59'0 0.0
2019-Apr-02 12:00N 69°40' E 018°59'0 0.0
2019-Apr-02 11:30N 69°40' E 018°59'0 0.0
2019-Apr-02 11:00N 69°40' E 018°59'0 0.0
2019-Apr-02 10:30N 69°40' E 018°59'1 1.4
2019-Apr-02 10:00N 69°40' E 018°59'0 0.8
2019-Apr-02 09:30N 69°40' E 018°58'0 0.0
2019-Apr-02 08:59N 69°40' E 018°58'0 0.0
2019-Apr-02 08:30N 69°40' E 018°58'0 0.0
2019-Apr-02 07:59N 69°40' E 018°58'0 0.0
2019-Apr-02 07:30N 69°40' E 018°58'0 0.0
2019-Apr-02 07:00N 69°40' E 018°58'0 0.0
2019-Apr-02 06:30N 69°40' E 018°58'0 0.0
2019-Apr-02 06:00N 69°40' E 018°58'0 0.0
2019-Apr-02 05:30N 69°40' E 018°58'0 0.0
2019-Apr-02 05:00N 69°40' E 018°58'0 0.0
2019-Apr-02 04:30N 69°40' E 018°58'0 0.0
2019-Apr-02 04:00N 69°40' E 018°58'0 0.0
2019-Apr-02 03:30N 69°40' E 018°58'0 0.0
2019-Apr-02 03:00N 69°40' E 018°58'0 0.0
2019-Apr-02 02:29N 69°40' E 018°58'0 0.0
2019-Apr-02 02:00N 69°40' E 018°58'0 0.0
2019-Apr-02 01:30N 69°40' E 018°58'0 0.0
2019-Apr-02 01:00N 69°40' E 018°58'0 0.0
2019-Apr-02 00:30N 69°40' E 018°58'0 0.0
2019-Apr-02 00:00N 69°40' E 018°58'0 0.0
2019-Apr-01 23:30N 69°40' E 018°58'0 0.0
2019-Apr-01 23:00N 69°40' E 018°58'0 0.0
2019-Apr-01 22:30N 69°40' E 018°58'0 0.0
2019-Apr-01 22:00N 69°40' E 018°58'0 0.0
2019-Apr-01 21:30N 69°40' E 018°58'0 0.0
2019-Apr-01 21:00N 69°40' E 018°58'0 0.0
2019-Apr-01 20:30N 69°40' E 018°58'0 0.0
2019-Apr-01 20:00N 69°40' E 018°58'0 0.0
2019-Apr-01 19:30N 69°40' E 018°58'0 0.0
2019-Apr-01 19:00N 69°40' E 018°58'0 0.0
2019-Apr-01 18:30N 69°40' E 018°58'0 0.0
2019-Apr-01 18:00N 69°40' E 018°58'0 0.0
2019-Apr-01 17:30N 69°40' E 018°58'0 0.0
2019-Apr-01 17:00N 69°40' E 018°58'0 0.1
2019-Apr-01 16:30N 69°40' E 018°58'0 0.1
2019-Apr-01 16:00N 69°40' E 018°58'0 0.0
2019-Apr-01 15:30N 69°40' E 018°58'0 0.0
2019-Apr-01 15:00N 69°40' E 018°58'0 0.0
2019-Apr-01 14:30N 69°40' E 018°58'0 0.0
2019-Apr-01 14:00N 69°40' E 018°58'0 0.0
2019-Apr-01 13:30N 69°40' E 018°58'0 0.0
2019-Apr-01 13:00N 69°40' E 018°58'0 0.0
2019-Apr-01 12:30N 69°40' E 018°58'0 0.0
2019-Apr-01 12:00N 69°40' E 018°58'0 0.0
2019-Apr-01 11:30N 69°40' E 018°58'0 0.0
2019-Apr-01 11:00N 69°40' E 018°58'0 0.0
2019-Apr-01 10:30N 69°40' E 018°58'0 0.0
2019-Apr-01 09:59N 69°40' E 018°58'0 0.0
2019-Apr-01 09:30N 69°40' E 018°58'0 0.0
2019-Apr-01 09:00N 69°40' E 018°58'0 0.0
2019-Apr-01 08:30N 69°40' E 018°58'0 0.0
2019-Apr-01 08:00N 69°40' E 018°58'0 0.0
2019-Apr-01 07:30N 69°40' E 018°58'0 0.0
2019-Apr-01 07:00N 69°40' E 018°58'0 0.0
2019-Apr-01 06:30N 69°40' E 018°58'0 0.0
2019-Apr-01 06:00N 69°40' E 018°58'0 0.0
2019-Apr-01 05:30N 69°40' E 018°58'0 0.0
2019-Apr-01 04:59N 69°40' E 018°58'0 0.0
2019-Apr-01 04:30N 69°40' E 018°58'0 0.0
2019-Apr-01 04:00N 69°40' E 018°58'0 0.0
2019-Apr-01 03:30N 69°40' E 018°58'0 0.0
2019-Apr-01 03:00N 69°40' E 018°58'0 0.0
2019-Apr-01 02:30N 69°40' E 018°58'0 0.0
2019-Apr-01 02:00N 69°40' E 018°58'0 0.0
2019-Apr-01 01:30N 69°40' E 018°58'0 0.0
2019-Apr-01 01:00N 69°40' E 018°58'0 0.0
2019-Apr-01 00:30N 69°40' E 018°58'0 0.0
2019-Apr-01 00:00N 69°40' E 018°58'0 0.0
2019-Mar-31 23:29N 69°40' E 018°58'0 0.0
2019-Mar-31 23:00N 69°40' E 018°58'0 0.0
2019-Mar-31 22:30N 69°40' E 018°58'0 0.0
2019-Mar-31 22:00N 69°40' E 018°58'0 0.0
2019-Mar-31 21:30N 69°40' E 018°58'0 0.0
2019-Mar-31 21:00N 69°40' E 018°58'0 0.0
2019-Mar-31 20:30N 69°40' E 018°58'0 0.0
2019-Mar-31 20:00N 69°40' E 018°58'0 0.0
2019-Mar-31 19:29N 69°40' E 018°58'0 0.0
2019-Mar-31 19:00N 69°40' E 018°58'0 0.0
2019-Mar-31 18:30N 69°40' E 018°58'0 0.0
2019-Mar-31 18:00N 69°40' E 018°58'0 0.0
2019-Mar-31 17:30N 69°40' E 018°58'0 0.0
2019-Mar-31 17:00N 69°40' E 018°58'0 0.0
2019-Mar-31 16:30N 69°40' E 018°58'0 0.0
2019-Mar-31 16:00N 69°40' E 018°58'0 0.0
2019-Mar-31 15:30N 69°40' E 018°58'0 0.0
2019-Mar-31 15:00N 69°40' E 018°58'0 0.5
2019-Mar-31 14:30N 69°39' E 018°59'0 0.4
2019-Mar-31 14:00N 69°39' E 018°58'0 0.0
2019-Mar-31 13:30N 69°39' E 018°58'0 0.0
2019-Mar-31 13:00N 69°39' E 018°58'0 0.0
2019-Mar-31 12:30N 69°39' E 018°58'0 0.0
2019-Mar-31 12:00N 69°39' E 018°58'0 0.0
2019-Mar-31 11:30N 69°39' E 018°58'1 2.3
2019-Mar-31 11:00N 69°40' E 019°00'2 4.1
2019-Mar-31 10:30N 69°42' E 019°02'0 0.0
2019-Mar-31 10:00N 69°42' E 019°02'0 0.0
2019-Mar-31 09:30N 69°42' E 019°02'0 0.0
2019-Mar-31 09:00N 69°42' E 019°02'0 0.0
2019-Mar-31 08:30N 69°42' E 019°02'0 0.0
2019-Mar-31 08:00N 69°42' E 019°02'0 0.0
2019-Mar-31 07:30N 69°42' E 019°02'0 0.0
2019-Mar-31 07:00N 69°42' E 019°02'0 0.0
2019-Mar-31 06:30N 69°42' E 019°02'0 0.0
2019-Mar-31 06:00N 69°42' E 019°02'0 0.0
2019-Mar-31 05:30N 69°42' E 019°02'0 0.0
2019-Mar-31 04:59N 69°42' E 019°02'0 0.0
2019-Mar-31 04:30N 69°42' E 019°02'0 0.0
2019-Mar-31 04:00N 69°42' E 019°02'0 0.0
2019-Mar-31 03:30N 69°42' E 019°02'0 0.0
2019-Mar-31 03:00N 69°42' E 019°02'0 0.0
2019-Mar-31 02:30N 69°42' E 019°02'0 0.0
2019-Mar-31 02:00N 69°42' E 019°02'0 0.0
2019-Mar-31 01:30N 69°42' E 019°02'0 0.0
2019-Mar-31 01:00N 69°42' E 019°02'0 0.0
2019-Mar-31 00:30N 69°42' E 019°02'0 0.0
2019-Mar-31 00:00N 69°42' E 019°02'0 0.0
2019-Mar-30 23:30N 69°42' E 019°02'0 0.0
2019-Mar-30 23:00N 69°42' E 019°02'0 0.0
2019-Mar-30 22:30N 69°42' E 019°02'0 0.0
2019-Mar-30 22:00N 69°42' E 019°02'0 0.0
2019-Mar-30 21:30N 69°42' E 019°02'0 0.0
2019-Mar-30 20:52N 69°42' E 019°02'0 0.0
2019-Mar-30 19:29N 69°42' E 019°02'0 0.0
2019-Mar-30 18:32N 69°42' E 019°02'0 0.1
2019-Mar-30 18:30N 69°42' E 019°02'0 0.0
2019-Mar-30 18:00N 69°42' E 019°02'0 0.0
2019-Mar-30 17:30N 69°42' E 019°02'0 0.0
2019-Mar-30 17:00N 69°42' E 019°02'0 0.0
2019-Mar-30 16:29N 69°42' E 019°02'0 0.0
2019-Mar-30 16:00N 69°42' E 019°02'0 0.0
2019-Mar-30 15:30N 69°42' E 019°02'0 0.0
2019-Mar-30 14:59N 69°42' E 019°02'0 0.0
2019-Mar-30 14:30N 69°42' E 019°02'0 0.0
2019-Mar-30 14:00N 69°42' E 019°02'0 0.0
2019-Mar-30 13:30N 69°42' E 019°02'0 0.0
2019-Mar-30 13:00N 69°42' E 019°02'0 0.0
2019-Mar-30 12:30N 69°42' E 019°02'0 0.0
2019-Mar-30 12:00N 69°42' E 019°02'0 0.0
2019-Mar-30 11:30N 69°42' E 019°02'0 0.0
2019-Mar-30 11:00N 69°42' E 019°02'0 0.0
2019-Mar-30 10:30N 69°42' E 019°02'0 0.0
2019-Mar-30 10:00N 69°42' E 019°02'0 0.0
2019-Mar-30 09:30N 69°42' E 019°02'0 0.0
2019-Mar-30 09:00N 69°42' E 019°02'0 0.0
2019-Mar-30 08:30N 69°42' E 019°02'0 0.0
2019-Mar-30 08:00N 69°42' E 019°02'0 0.0
2019-Mar-30 07:30N 69°42' E 019°02'0 0.0
2019-Mar-30 07:00N 69°42' E 019°02'0 0.0
2019-Mar-30 06:30N 69°42' E 019°02'0 0.0
2019-Mar-30 06:00N 69°42' E 019°02'0 0.0
2019-Mar-30 05:30N 69°42' E 019°02'0 0.0
2019-Mar-30 05:00N 69°42' E 019°02'0 0.0
2019-Mar-30 04:30N 69°42' E 019°02'0 0.0
2019-Mar-30 04:00N 69°42' E 019°02'0 0.0
2019-Mar-30 03:30N 69°42' E 019°02'0 0.0
2019-Mar-30 03:00N 69°42' E 019°02'0 0.0
2019-Mar-30 02:30N 69°42' E 019°02'0 0.0
2019-Mar-30 02:00N 69°42' E 019°02'0 0.0
2019-Mar-30 01:30N 69°42' E 019°02'0 0.0
2019-Mar-30 01:00N 69°42' E 019°02'0 0.0
2019-Mar-30 00:30N 69°42' E 019°02'0 0.0
2019-Mar-30 00:00N 69°42' E 019°02'0 0.0
2019-Mar-29 23:30N 69°42' E 019°02'0 0.0
2019-Mar-29 23:00N 69°42' E 019°02'0 0.0
2019-Mar-29 22:29N 69°42' E 019°02'0 0.0
2019-Mar-29 22:00N 69°42' E 019°02'0 0.0
2019-Mar-29 21:30N 69°42' E 019°02'0 0.0
2019-Mar-29 21:00N 69°42' E 019°02'0 0.0
2019-Mar-29 20:30N 69°42' E 019°02'0 0.0
2019-Mar-29 20:00N 69°42' E 019°02'0 0.0
2019-Mar-29 19:29N 69°42' E 019°02'0 0.0
2019-Mar-29 19:00N 69°42' E 019°02'0 0.0
2019-Mar-29 18:30N 69°42' E 019°02'0 0.0
2019-Mar-29 17:59N 69°42' E 019°02'0 0.0
2019-Mar-29 17:30N 69°42' E 019°02'0 0.0
2019-Mar-29 17:00N 69°42' E 019°02'0 0.0
2019-Mar-29 16:29N 69°42' E 019°02'0 0.0
2019-Mar-29 16:00N 69°42' E 019°02'0 0.0
2019-Mar-29 15:30N 69°42' E 019°02'0 0.0
2019-Mar-29 15:00N 69°42' E 019°02'0 0.0
2019-Mar-29 14:30N 69°42' E 019°02'0 0.0
2019-Mar-29 14:00N 69°42' E 019°02'0 0.0
2019-Mar-29 13:30N 69°42' E 019°02'0 0.0
2019-Mar-29 13:00N 69°42' E 019°02'0 0.0
2019-Mar-29 12:30N 69°42' E 019°02'0 0.0
2019-Mar-29 12:00N 69°42' E 019°02'0 0.0
2019-Mar-29 11:30N 69°42' E 019°02'0 0.0
2019-Mar-29 11:00N 69°42' E 019°02'0 0.0
2019-Mar-29 10:30N 69°42' E 019°02'0 0.0
2019-Mar-29 10:00N 69°42' E 019°02'0 0.0
2019-Mar-29 09:30N 69°42' E 019°02'0 0.0
2019-Mar-29 09:00N 69°42' E 019°02'0 0.0
2019-Mar-29 08:30N 69°42' E 019°02'0 0.0
2019-Mar-29 08:00N 69°42' E 019°02'0 0.0
2019-Mar-29 07:30N 69°42' E 019°02'0 0.0
2019-Mar-29 07:00N 69°42' E 019°02'0 0.0
2019-Mar-29 06:30N 69°42' E 019°02'0 0.0
2019-Mar-29 06:00N 69°42' E 019°02'0 0.0
2019-Mar-29 05:30N 69°42' E 019°02'0 0.0
2019-Mar-29 05:00N 69°42' E 019°02'0 0.0
2019-Mar-29 04:30N 69°42' E 019°02'0 0.0
2019-Mar-29 03:59N 69°42' E 019°02'0 0.0
2019-Mar-29 03:30N 69°42' E 019°02'0 0.0
2019-Mar-29 02:59N 69°42' E 019°02'0 0.0
2019-Mar-29 02:30N 69°42' E 019°02'0 0.0
2019-Mar-29 02:00N 69°42' E 019°02'0 0.0
2019-Mar-29 01:30N 69°42' E 019°02'0 0.0
2019-Mar-29 01:00N 69°42' E 019°02'0 0.0
2019-Mar-29 00:30N 69°42' E 019°02'0 0.0
2019-Mar-29 00:00N 69°42' E 019°02'0 0.0
2019-Mar-28 23:30N 69°42' E 019°02'0 0.0
2019-Mar-28 23:00N 69°42' E 019°02'0 0.0
2019-Mar-28 22:29N 69°42' E 019°02'0 0.0
2019-Mar-28 22:00N 69°42' E 019°02'0 0.0
2019-Mar-28 21:30N 69°42' E 019°02'0 0.0
2019-Mar-28 21:00N 69°42' E 019°02'0 0.0
2019-Mar-28 20:30N 69°42' E 019°02'0 0.0
2019-Mar-28 20:00N 69°42' E 019°02'0 0.0
2019-Mar-28 19:30N 69°42' E 019°02'22 5.5
2019-Mar-28 15:30N 69°60' E 019°42'4 8.2
2019-Mar-28 15:00N 70°03' E 019°36'4 7.0
2019-Mar-28 14:30N 69°60' E 019°33'0 0.3
2019-Mar-28 14:00N 69°60' E 019°34'0 0.0
2019-Mar-28 13:30N 69°60' E 019°34'0 0.0
2019-Mar-28 12:59N 69°60' E 019°34'0 0.0
2019-Mar-28 12:29N 69°60' E 019°34'0 0.0
2019-Mar-28 12:00N 69°60' E 019°34'0 0.0
2019-Mar-28 11:30N 69°60' E 019°34'0 0.0
2019-Mar-28 10:59N 69°60' E 019°34'0 0.0
2019-Mar-28 10:30N 69°60' E 019°34'0 0.0
2019-Mar-28 10:00N 69°60' E 019°34'0 0.0
2019-Mar-28 09:30N 69°60' E 019°34'0 0.0
2019-Mar-28 08:57N 69°60' E 019°34'0 0.0
2019-Mar-28 08:30N 69°60' E 019°34'0 0.0
2019-Mar-28 08:00N 69°60' E 019°34'0 0.0
2019-Mar-28 07:30N 69°60' E 019°34'0 0.0
2019-Mar-28 07:00N 69°60' E 019°34'0 0.0
2019-Mar-28 06:30N 69°60' E 019°34'0 0.0
2019-Mar-28 06:00N 69°60' E 019°34'0 0.0
2019-Mar-28 05:28N 69°60' E 019°34'0 0.0
2019-Mar-28 05:00N 69°60' E 019°34'0 0.0
2019-Mar-28 04:30N 69°60' E 019°34'0 0.0
2019-Mar-28 04:00N 69°60' E 019°34'0 0.0
2019-Mar-28 03:30N 69°60' E 019°34'0 0.0
2019-Mar-28 03:00N 69°60' E 019°34'0 0.0
2019-Mar-28 02:30N 69°60' E 019°34'  
Track history (hours):
 
Tides and Currents Weather Stations Pressure Air Temp Water Temp Dewpoint Dewpoint Depression Visibility Wind Speed Wind Dir Waves Ship Positions

Oceanographic research ship Lance (Norway)

Detailed information on ship capabilities available from University of Delaware's Ocean Information Center and ARCUS's ALIAS (Arctic Logistics Information and Support) project.

Last reported at 2019-Apr-07 02:17 UTC. Time now 2019-Apr-18 20:23 UTC.
Position N 69°51' E 013°53'.
Warning: this ship's position is 11 days out of date.

Type: Ship. MMSI: 258236000.

Date/timePositionNaut miles runAvg speedWind from/ knotsBaromVisibWave heightAir tempDewpointWater temp
2019-Apr-07 02:17N 69°51' E 013°53'4 9.5
2019-Apr-07 01:51N 69°50' E 014°05'3 9.4
2019-Apr-07 01:30N 69°50' E 014°14'4 8.9
2019-Apr-07 01:00N 69°49' E 014°27'4 8.7
2019-Apr-07 00:30N 69°49' E 014°40'4 8.8
2019-Apr-07 00:00N 69°49' E 014°52'4 8.7
2019-Apr-06 23:30N 69°48' E 015°05'5 9.5
2019-Apr-06 23:00N 69°48' E 015°19'4 9.0
2019-Apr-06 22:30N 69°47' E 015°32'4 7.8
2019-Apr-06 21:57N 69°47' E 015°44'4 7.7
2019-Apr-06 21:30N 69°46' E 015°54'4 8.7
2019-Apr-06 21:00N 69°46' E 016°06'4 8.2
2019-Apr-06 20:30N 69°46' E 016°18'3 6.9
2019-Apr-06 20:00N 69°45' E 016°28'4 7.2
2019-Apr-06 19:30N 69°44' E 016°38'4 7.9
2019-Apr-06 19:00N 69°43' E 016°49'4 7.9
2019-Apr-06 18:30N 69°43' E 017°00'4 8.1
2019-Apr-06 18:00N 69°42' E 017°12'4 8.5
2019-Apr-06 17:28N 69°41' E 017°25'4 8.7
2019-Apr-06 17:00N 69°41' E 017°37'4 8.2
2019-Apr-06 16:30N 69°39' E 017°48'4 7.9
2019-Apr-06 16:00N 69°36' E 017°53'4 8.8
2019-Apr-06 15:30N 69°32' E 018°01'4 8.8
2019-Apr-06 15:00N 69°31' E 018°13'5 9.1
2019-Apr-06 14:30N 69°31' E 018°25'4 8.9
2019-Apr-06 14:00N 69°33' E 018°38'1 1.2
2019-Apr-06 13:30N 69°33' E 018°39'4 7.2
2019-Apr-06 12:59N 69°34' E 018°49'4 9.1
2019-Apr-06 12:30N 69°38' E 018°56'3 5.1
2019-Apr-06 12:00N 69°40' E 018°59'0 0.0
2019-Apr-06 11:30N 69°40' E 018°59'0 0.0
2019-Apr-06 11:00N 69°40' E 018°59'0 0.0
2019-Apr-06 10:30N 69°40' E 018°59'0 0.0
2019-Apr-06 10:00N 69°40' E 018°59'0 0.0
2019-Apr-06 09:30N 69°40' E 018°59'0 0.0
2019-Apr-06 09:00N 69°40' E 018°59'0 0.0
2019-Apr-06 08:30N 69°40' E 018°59'0 0.0
2019-Apr-06 08:00N 69°40' E 018°59'0 0.0
2019-Apr-06 07:30N 69°40' E 018°59'1 2.3
2019-Apr-06 07:00N 69°39' E 018°58'0 0.0
2019-Apr-06 06:30N 69°39' E 018°58'0 0.0
2019-Apr-06 05:59N 69°39' E 018°58'0 0.0
2019-Apr-06 05:30N 69°39' E 018°58'0 0.0
2019-Apr-06 05:00N 69°39' E 018°58'0 0.0
2019-Apr-06 04:30N 69°39' E 018°58'0 0.0
2019-Apr-06 04:00N 69°39' E 018°58'0 0.0
2019-Apr-06 03:30N 69°39' E 018°58'0 0.0
2019-Apr-06 03:00N 69°39' E 018°58'0 0.0
2019-Apr-06 02:30N 69°39' E 018°58'0 0.0
2019-Apr-06 02:00N 69°39' E 018°58'0 0.0
2019-Apr-06 01:30N 69°39' E 018°58'0 0.0
2019-Apr-06 01:00N 69°39' E 018°58'0 0.0
2019-Apr-06 00:30N 69°39' E 018°58'0 0.0
2019-Apr-06 00:00N 69°39' E 018°58'0 0.0
2019-Apr-05 23:30N 69°39' E 018°58'0 0.0
2019-Apr-05 23:00N 69°39' E 018°58'0 0.0
2019-Apr-05 22:29N 69°39' E 018°58'0 0.0
2019-Apr-05 22:00N 69°39' E 018°58'0 0.0
2019-Apr-05 21:30N 69°39' E 018°58'0 0.0
2019-Apr-05 21:00N 69°39' E 018°58'0 0.0
2019-Apr-05 20:30N 69°39' E 018°58'0 0.0
2019-Apr-05 20:00N 69°39' E 018°58'0 0.0
2019-Apr-05 19:29N 69°39' E 018°58'0 0.0
2019-Apr-05 19:00N 69°39' E 018°58'0 0.0
2019-Apr-05 18:30N 69°39' E 018°58'0 0.0
2019-Apr-05 18:00N 69°39' E 018°58'0 0.0
2019-Apr-05 17:30N 69°39' E 018°58'0 0.0
2019-Apr-05 17:00N 69°39' E 018°58'0 0.0
2019-Apr-05 16:29N 69°39' E 018°58'0 0.0
2019-Apr-05 16:00N 69°39' E 018°58'1 2.9
2019-Apr-05 15:30N 69°41' E 018°59'0 0.6
2019-Apr-05 15:00N 69°40' E 018°59'0 0.0
2019-Apr-05 14:30N 69°40' E 018°59'0 0.0
2019-Apr-05 14:00N 69°40' E 018°59'0 0.0
2019-Apr-05 13:30N 69°40' E 018°59'0 0.0
2019-Apr-05 13:00N 69°40' E 018°59'0 0.0
2019-Apr-05 12:30N 69°40' E 018°59'0 0.0
2019-Apr-05 12:00N 69°40' E 018°59'0 0.0
2019-Apr-05 11:30N 69°40' E 018°59'0 0.0
2019-Apr-05 11:00N 69°40' E 018°59'0 0.0
2019-Apr-05 10:30N 69°40' E 018°59'0 0.0
2019-Apr-05 10:00N 69°40' E 018°59'0 0.0
2019-Apr-05 09:30N 69°40' E 018°59'0 0.0
2019-Apr-05 09:00N 69°40' E 018°59'0 0.0
2019-Apr-05 08:30N 69°40' E 018°59'0 0.0
2019-Apr-05 08:00N 69°40' E 018°59'0 0.0
2019-Apr-05 07:30N 69°40' E 018°59'0 0.0
2019-Apr-05 07:00N 69°40' E 018°59'0 0.0
2019-Apr-05 06:30N 69°40' E 018°59'0 0.0
2019-Apr-05 06:00N 69°40' E 018°59'0 0.0
2019-Apr-05 05:29N 69°40' E 018°59'0 0.0
2019-Apr-05 05:00N 69°40' E 018°59'0 0.0
2019-Apr-05 04:30N 69°40' E 018°59'0 0.0
2019-Apr-05 04:00N 69°40' E 018°59'0 0.0
2019-Apr-05 03:30N 69°40' E 018°59'0 0.0
2019-Apr-05 03:00N 69°40' E 018°59'0 0.0
2019-Apr-05 02:30N 69°40' E 018°59'0 0.0
2019-Apr-05 02:00N 69°40' E 018°59'0 0.0
2019-Apr-05 01:30N 69°40' E 018°59'0 0.0
2019-Apr-05 01:00N 69°40' E 018°59'0 0.0
2019-Apr-05 00:30N 69°40' E 018°59'0 0.0
2019-Apr-04 23:59N 69°40' E 018°59'0 0.0
2019-Apr-04 23:30N 69°40' E 018°59'0 0.0
2019-Apr-04 23:00N 69°40' E 018°59'0 0.0
2019-Apr-04 22:30N 69°40' E 018°59'0 0.0
2019-Apr-04 22:00N 69°40' E 018°59'0 0.0
2019-Apr-04 21:30N 69°40' E 018°59'0 0.0
2019-Apr-04 21:00N 69°40' E 018°59'0 0.0
2019-Apr-04 20:30N 69°40' E 018°59'0 0.0
2019-Apr-04 20:00N 69°40' E 018°59'0 0.0
2019-Apr-04 19:29N 69°40' E 018°59'0 0.0
2019-Apr-04 19:00N 69°40' E 018°59'0 0.0
2019-Apr-04 18:30N 69°40' E 018°59'0 0.0
2019-Apr-04 18:00N 69°40' E 018°59'0 0.0
2019-Apr-04 17:30N 69°40' E 018°59'0 0.0
2019-Apr-04 17:00N 69°40' E 018°59'0 0.0
2019-Apr-04 16:29N 69°40' E 018°59'0 0.0
2019-Apr-04 16:00N 69°40' E 018°59'0 0.0
2019-Apr-04 15:30N 69°40' E 018°59'0 0.0
2019-Apr-04 15:00N 69°40' E 018°59'0 0.0
2019-Apr-04 14:30N 69°40' E 018°59'0 0.0
2019-Apr-04 14:00N 69°40' E 018°59'0 0.0
2019-Apr-04 13:30N 69°40' E 018°59'0 0.0
2019-Apr-04 13:00N 69°40' E 018°59'0 0.0
2019-Apr-04 12:30N 69°40' E 018°59'0 0.0
2019-Apr-04 12:00N 69°40' E 018°59'0 0.0
2019-Apr-04 11:30N 69°40' E 018°59'0 0.0
2019-Apr-04 11:00N 69°40' E 018°59'0 0.0
2019-Apr-04 10:29N 69°40' E 018°59'0 0.0
2019-Apr-04 10:00N 69°40' E 018°59'0 0.0
2019-Apr-04 09:30N 69°40' E 018°59'0 0.0
2019-Apr-04 09:00N 69°40' E 018°59'0 0.0
2019-Apr-04 08:30N 69°40' E 018°59'0 0.0
2019-Apr-04 08:00N 69°40' E 018°59'0 0.0
2019-Apr-04 07:30N 69°40' E 018°59'0 0.0
2019-Apr-04 07:00N 69°40' E 018°59'0 0.0
2019-Apr-04 06:30N 69°40' E 018°59'0 0.0
2019-Apr-04 06:00N 69°40' E 018°59'0 0.0
2019-Apr-04 05:30N 69°40' E 018°59'0 0.0
2019-Apr-04 05:00N 69°40' E 018°59'0 0.0
2019-Apr-04 04:30N 69°40' E 018°59'0 0.0
2019-Apr-04 04:00N 69°40' E 018°59'0 0.0
2019-Apr-04 03:29N 69°40' E 018°59'0 0.0
2019-Apr-04 02:59N 69°40' E 018°59'0 0.0
2019-Apr-04 02:30N 69°40' E 018°59'0 0.0
2019-Apr-04 02:00N 69°40' E 018°59'0 0.0
2019-Apr-04 01:30N 69°40' E 018°59'0 0.0
2019-Apr-04 01:00N 69°40' E 018°59'0 0.0
2019-Apr-04 00:30N 69°40' E 018°59'0 0.0
2019-Apr-04 00:00N 69°40' E 018°59'0 0.0
2019-Apr-03 23:30N 69°40' E 018°59'0 0.0
2019-Apr-03 23:00N 69°40' E 018°59'0 0.0
2019-Apr-03 22:29N 69°40' E 018°59'0 0.0
2019-Apr-03 22:00N 69°40' E 018°59'0 0.0
2019-Apr-03 21:30N 69°40' E 018°59'0 0.0
2019-Apr-03 21:00N 69°40' E 018°59'0 0.0
2019-Apr-03 20:24N 69°40' E 018°59'0 0.0
2019-Apr-03 20:00N 69°40' E 018°59'0 0.0
2019-Apr-03 19:30N 69°40' E 018°59'0 0.0
2019-Apr-03 19:00N 69°40' E 018°59'0 0.0
2019-Apr-03 18:30N 69°40' E 018°59'0 0.0
2019-Apr-03 18:00N 69°40' E 018°59'0 0.0
2019-Apr-03 17:29N 69°40' E 018°59'0 0.0
2019-Apr-03 16:59N 69°40' E 018°59'0 0.0
2019-Apr-03 16:29N 69°40' E 018°59'0 0.0
2019-Apr-03 16:00N 69°40' E 018°59'0 0.0
2019-Apr-03 15:30N 69°40' E 018°59'0 0.0
2019-Apr-03 15:00N 69°40' E 018°59'0 0.0
2019-Apr-03 14:29N 69°40' E 018°59'0 0.0
2019-Apr-03 14:00N 69°40' E 018°59'0 0.0
2019-Apr-03 13:30N 69°40' E 018°59'0 0.0
2019-Apr-03 12:59N 69°40' E 018°59'0 0.0
2019-Apr-03 12:30N 69°40' E 018°59'0 0.0
2019-Apr-03 12:00N 69°40' E 018°59'0 0.0
2019-Apr-03 11:30N 69°40' E 018°59'0 0.0
2019-Apr-03 11:00N 69°40' E 018°59'0 0.0
2019-Apr-03 10:30N 69°40' E 018°59'0 0.0
2019-Apr-03 10:00N 69°40' E 018°59'0 0.0
2019-Apr-03 09:30N 69°40' E 018°59'0 0.0
2019-Apr-03 09:00N 69°40' E 018°59'0 0.0
2019-Apr-03 08:30N 69°40' E 018°59'0 0.0
2019-Apr-03 08:00N 69°40' E 018°59'0 0.0
2019-Apr-03 07:29N 69°40' E 018°59'0 0.0
2019-Apr-03 07:00N 69°40' E 018°59'0 0.0
2019-Apr-03 06:30N 69°40' E 018°59'0 0.0
2019-Apr-03 06:00N 69°40' E 018°59'0 0.0
2019-Apr-03 05:30N 69°40' E 018°59'0 0.0
2019-Apr-03 05:00N 69°40' E 018°59'0 0.0
2019-Apr-03 04:29N 69°40' E 018°59'0 0.0
2019-Apr-03 04:00N 69°40' E 018°59'0 0.0
2019-Apr-03 03:30N 69°40' E 018°59'0 0.0
2019-Apr-03 03:00N 69°40' E 018°59'0 0.0
2019-Apr-03 02:30N 69°40' E 018°59'0 0.0
2019-Apr-03 02:00N 69°40' E 018°59'0 0.0
2019-Apr-03 01:30N 69°40' E 018°59'0 0.0
2019-Apr-03 01:00N 69°40' E 018°59'0 0.0
2019-Apr-03 00:30N 69°40' E 018°59'0 0.0
2019-Apr-03 00:00N 69°40' E 018°59'0 0.0
2019-Apr-02 23:30N 69°40' E 018°59'0 0.0
2019-Apr-02 23:00N 69°40' E 018°59'0 0.0
2019-Apr-02 22:30N 69°40' E 018°59'0 0.0
2019-Apr-02 22:00N 69°40' E 018°59'0 0.0
2019-Apr-02 21:30N 69°40' E 018°59'0 0.0
2019-Apr-02 21:00N 69°40' E 018°59'0 0.0
2019-Apr-02 20:30N 69°40' E 018°59'0 0.0
2019-Apr-02 19:58N 69°40' E 018°59'0 0.0
2019-Apr-02 19:29N 69°40' E 018°59'0 0.0
2019-Apr-02 18:59N 69°40' E 018°59'0 0.0
2019-Apr-02 18:30N 69°40' E 018°59'0 0.0
2019-Apr-02 18:00N 69°40' E 018°59'0 0.0
2019-Apr-02 17:30N 69°40' E 018°59'0 0.0
2019-Apr-02 17:00N 69°40' E 018°59'0 0.0
2019-Apr-02 16:30N 69°40' E 018°59'0 0.0
2019-Apr-02 16:00N 69°40' E 018°59'0 0.0
2019-Apr-02 15:30N 69°40' E 018°59'0 0.0
2019-Apr-02 15:00N 69°40' E 018°59'0 0.0
2019-Apr-02 14:30N 69°40' E 018°59'0 0.0
2019-Apr-02 14:00N 69°40' E 018°59'0 0.0
2019-Apr-02 13:29N 69°40' E 018°59'0 0.0
2019-Apr-02 13:00N 69°40' E 018°59'0 0.0
2019-Apr-02 12:30N 69°40' E 018°59'0 0.0
2019-Apr-02 12:00N 69°40' E 018°59'0 0.0
2019-Apr-02 11:30N 69°40' E 018°59'0 0.0
2019-Apr-02 11:00N 69°40' E 018°59'0 0.0
2019-Apr-02 10:30N 69°40' E 018°59'1 1.4
2019-Apr-02 10:00N 69°40' E 018°59'0 0.8
2019-Apr-02 09:30N 69°40' E 018°58'0 0.0
2019-Apr-02 08:59N 69°40' E 018°58'0 0.0
2019-Apr-02 08:30N 69°40' E 018°58'0 0.0
2019-Apr-02 07:59N 69°40' E 018°58'0 0.0
2019-Apr-02 07:30N 69°40' E 018°58'0 0.0
2019-Apr-02 07:00N 69°40' E 018°58'0 0.0
2019-Apr-02 06:30N 69°40' E 018°58'0 0.0
2019-Apr-02 06:00N 69°40' E 018°58'0 0.0
2019-Apr-02 05:30N 69°40' E 018°58'0 0.0
2019-Apr-02 05:00N 69°40' E 018°58'0 0.0
2019-Apr-02 04:30N 69°40' E 018°58'0 0.0
2019-Apr-02 04:00N 69°40' E 018°58'0 0.0
2019-Apr-02 03:30N 69°40' E 018°58'0 0.0
2019-Apr-02 03:00N 69°40' E 018°58'0 0.0
2019-Apr-02 02:29N 69°40' E 018°58'0 0.0
2019-Apr-02 02:00N 69°40' E 018°58'0 0.0
2019-Apr-02 01:30N 69°40' E 018°58'0 0.0
2019-Apr-02 01:00N 69°40' E 018°58'0 0.0
2019-Apr-02 00:30N 69°40' E 018°58'0 0.0
2019-Apr-02 00:00N 69°40' E 018°58'0 0.0
2019-Apr-01 23:30N 69°40' E 018°58'0 0.0
2019-Apr-01 23:00N 69°40' E 018°58'0 0.0
2019-Apr-01 22:30N 69°40' E 018°58'0 0.0
2019-Apr-01 22:00N 69°40' E 018°58'0 0.0
2019-Apr-01 21:30N 69°40' E 018°58'0 0.0
2019-Apr-01 21:00N 69°40' E 018°58'0 0.0
2019-Apr-01 20:30N 69°40' E 018°58'0 0.0
2019-Apr-01 20:00N 69°40' E 018°58'0 0.0
2019-Apr-01 19:30N 69°40' E 018°58'0 0.0
2019-Apr-01 19:00N 69°40' E 018°58'0 0.0
2019-Apr-01 18:30N 69°40' E 018°58'0 0.0
2019-Apr-01 18:00N 69°40' E 018°58'0 0.0
2019-Apr-01 17:30N 69°40' E 018°58'0 0.0
2019-Apr-01 17:00N 69°40' E 018°58'0 0.1
2019-Apr-01 16:30N 69°40' E 018°58'0 0.1
2019-Apr-01 16:00N 69°40' E 018°58'0 0.0
2019-Apr-01 15:30N 69°40' E 018°58'0 0.0
2019-Apr-01 15:00N 69°40' E 018°58'0 0.0
2019-Apr-01 14:30N 69°40' E 018°58'0 0.0
2019-Apr-01 14:00N 69°40' E 018°58'0 0.0
2019-Apr-01 13:30N 69°40' E 018°58'0 0.0
2019-Apr-01 13:00N 69°40' E 018°58'0 0.0
2019-Apr-01 12:30N 69°40' E 018°58'0 0.0
2019-Apr-01 12:00N 69°40' E 018°58'0 0.0
2019-Apr-01 11:30N 69°40' E 018°58'0 0.0
2019-Apr-01 11:00N 69°40' E 018°58'0 0.0
2019-Apr-01 10:30N 69°40' E 018°58'0 0.0
2019-Apr-01 09:59N 69°40' E 018°58'0 0.0
2019-Apr-01 09:30N 69°40' E 018°58'0 0.0
2019-Apr-01 09:00N 69°40' E 018°58'0 0.0
2019-Apr-01 08:30N 69°40' E 018°58'0 0.0
2019-Apr-01 08:00N 69°40' E 018°58'0 0.0
2019-Apr-01 07:30N 69°40' E 018°58'0 0.0
2019-Apr-01 07:00N 69°40' E 018°58'0 0.0
2019-Apr-01 06:30N 69°40' E 018°58'0 0.0
2019-Apr-01 06:00N 69°40' E 018°58'0 0.0
2019-Apr-01 05:30N 69°40' E 018°58'0 0.0
2019-Apr-01 04:59N 69°40' E 018°58'0 0.0
2019-Apr-01 04:30N 69°40' E 018°58'0 0.0
2019-Apr-01 04:00N 69°40' E 018°58'0 0.0
2019-Apr-01 03:30N 69°40' E 018°58'0 0.0
2019-Apr-01 03:00N 69°40' E 018°58'0 0.0
2019-Apr-01 02:30N 69°40' E 018°58'0 0.0
2019-Apr-01 02:00N 69°40' E 018°58'0 0.0
2019-Apr-01 01:30N 69°40' E 018°58'0 0.0
2019-Apr-01 01:00N 69°40' E 018°58'0 0.0
2019-Apr-01 00:30N 69°40' E 018°58'0 0.0
2019-Apr-01 00:00N 69°40' E 018°58'0 0.0
2019-Mar-31 23:29N 69°40' E 018°58'0 0.0
2019-Mar-31 23:00N 69°40' E 018°58'0 0.0
2019-Mar-31 22:30N 69°40' E 018°58'0 0.0
2019-Mar-31 22:00N 69°40' E 018°58'0 0.0
2019-Mar-31 21:30N 69°40' E 018°58'0 0.0
2019-Mar-31 21:00N 69°40' E 018°58'0 0.0
2019-Mar-31 20:30N 69°40' E 018°58'0 0.0
2019-Mar-31 20:00N 69°40' E 018°58'0 0.0
2019-Mar-31 19:29N 69°40' E 018°58'0 0.0
2019-Mar-31 19:00N 69°40' E 018°58'0 0.0
2019-Mar-31 18:30N 69°40' E 018°58'0 0.0
2019-Mar-31 18:00N 69°40' E 018°58'0 0.0
2019-Mar-31 17:30N 69°40' E 018°58'0 0.0
2019-Mar-31 17:00N 69°40' E 018°58'0 0.0
2019-Mar-31 16:30N 69°40' E 018°58'0 0.0
2019-Mar-31 16:00N 69°40' E 018°58'0 0.0
2019-Mar-31 15:30N 69°40' E 018°58'0 0.0
2019-Mar-31 15:00N 69°40' E 018°58'0 0.5
2019-Mar-31 14:30N 69°39' E 018°59'0 0.4
2019-Mar-31 14:00N 69°39' E 018°58'0 0.0
2019-Mar-31 13:30N 69°39' E 018°58'0 0.0
2019-Mar-31 13:00N 69°39' E 018°58'0 0.0
2019-Mar-31 12:30N 69°39' E 018°58'0 0.0
2019-Mar-31 12:00N 69°39' E 018°58'0 0.0
2019-Mar-31 11:30N 69°39' E 018°58'1 2.3
2019-Mar-31 11:00N 69°40' E 019°00'2 4.1
2019-Mar-31 10:30N 69°42' E 019°02'0 0.0
2019-Mar-31 10:00N 69°42' E 019°02'0 0.0
2019-Mar-31 09:30N 69°42' E 019°02'0 0.0
2019-Mar-31 09:00N 69°42' E 019°02'0 0.0
2019-Mar-31 08:30N 69°42' E 019°02'0 0.0
2019-Mar-31 08:00N 69°42' E 019°02'0 0.0
2019-Mar-31 07:30N 69°42' E 019°02'0 0.0
2019-Mar-31 07:00N 69°42' E 019°02'0 0.0
2019-Mar-31 06:30N 69°42' E 019°02'0 0.0
2019-Mar-31 06:00N 69°42' E 019°02'0 0.0
2019-Mar-31 05:30N 69°42' E 019°02'0 0.0
2019-Mar-31 04:59N 69°42' E 019°02'0 0.0
2019-Mar-31 04:30N 69°42' E 019°02'0 0.0
2019-Mar-31 04:00N 69°42' E 019°02'0 0.0
2019-Mar-31 03:30N 69°42' E 019°02'0 0.0
2019-Mar-31 03:00N 69°42' E 019°02'0 0.0
2019-Mar-31 02:30N 69°42' E 019°02'0 0.0
2019-Mar-31 02:00N 69°42' E 019°02'0 0.0
2019-Mar-31 01:30N 69°42' E 019°02'0 0.0
2019-Mar-31 01:00N 69°42' E 019°02'0 0.0
2019-Mar-31 00:30N 69°42' E 019°02'0 0.0
2019-Mar-31 00:00N 69°42' E 019°02'0 0.0
2019-Mar-30 23:30N 69°42' E 019°02'0 0.0
2019-Mar-30 23:00N 69°42' E 019°02'0 0.0
2019-Mar-30 22:30N 69°42' E 019°02'0 0.0
2019-Mar-30 22:00N 69°42' E 019°02'0 0.0
2019-Mar-30 21:30N 69°42' E 019°02'0 0.0
2019-Mar-30 20:52N 69°42' E 019°02'0 0.0
2019-Mar-30 19:29N 69°42' E 019°02'0 0.0
2019-Mar-30 18:32N 69°42' E 019°02'0 0.1
2019-Mar-30 18:30N 69°42' E 019°02'0 0.0
2019-Mar-30 18:00N 69°42' E 019°02'0 0.0
2019-Mar-30 17:30N 69°42' E 019°02'0 0.0
2019-Mar-30 17:00N 69°42' E 019°02'0 0.0
2019-Mar-30 16:29N 69°42' E 019°02'0 0.0
2019-Mar-30 16:00N 69°42' E 019°02'0 0.0
2019-Mar-30 15:30N 69°42' E 019°02'0 0.0
2019-Mar-30 14:59N 69°42' E 019°02'0 0.0
2019-Mar-30 14:30N 69°42' E 019°02'0 0.0
2019-Mar-30 14:00N 69°42' E 019°02'0 0.0
2019-Mar-30 13:30N 69°42' E 019°02'0 0.0
2019-Mar-30 13:00N 69°42' E 019°02'0 0.0
2019-Mar-30 12:30N 69°42' E 019°02'0 0.0
2019-Mar-30 12:00N 69°42' E 019°02'0 0.0
2019-Mar-30 11:30N 69°42' E 019°02'0 0.0
2019-Mar-30 11:00N 69°42' E 019°02'0 0.0
2019-Mar-30 10:30N 69°42' E 019°02'0 0.0
2019-Mar-30 10:00N 69°42' E 019°02'0 0.0
2019-Mar-30 09:30N 69°42' E 019°02'0 0.0
2019-Mar-30 09:00N 69°42' E 019°02'0 0.0
2019-Mar-30 08:30N 69°42' E 019°02'0 0.0
2019-Mar-30 08:00N 69°42' E 019°02'0 0.0
2019-Mar-30 07:30N 69°42' E 019°02'0 0.0
2019-Mar-30 07:00N 69°42' E 019°02'0 0.0
2019-Mar-30 06:30N 69°42' E 019°02'0 0.0
2019-Mar-30 06:00N 69°42' E 019°02'0 0.0
2019-Mar-30 05:30N 69°42' E 019°02'0 0.0
2019-Mar-30 05:00N 69°42' E 019°02'0 0.0
2019-Mar-30 04:30N 69°42' E 019°02'0 0.0
2019-Mar-30 04:00N 69°42' E 019°02'0 0.0
2019-Mar-30 03:30N 69°42' E 019°02'0 0.0
2019-Mar-30 03:00N 69°42' E 019°02'0 0.0
2019-Mar-30 02:30N 69°42' E 019°02'0 0.0
2019-Mar-30 02:00N 69°42' E 019°02'0 0.0
2019-Mar-30 01:30N 69°42' E 019°02'0 0.0
2019-Mar-30 01:00N 69°42' E 019°02'0 0.0
2019-Mar-30 00:30N 69°42' E 019°02'0 0.0
2019-Mar-30 00:00N 69°42' E 019°02'0 0.0
2019-Mar-29 23:30N 69°42' E 019°02'0 0.0
2019-Mar-29 23:00N 69°42' E 019°02'0 0.0
2019-Mar-29 22:29N 69°42' E 019°02'0 0.0
2019-Mar-29 22:00N 69°42' E 019°02'0 0.0
2019-Mar-29 21:30N 69°42' E 019°02'0 0.0
2019-Mar-29 21:00N 69°42' E 019°02'0 0.0
2019-Mar-29 20:30N 69°42' E 019°02'0 0.0
2019-Mar-29 20:00N 69°42' E 019°02'0 0.0
2019-Mar-29 19:29N 69°42' E 019°02'0 0.0
2019-Mar-29 19:00N 69°42' E 019°02'0 0.0
2019-Mar-29 18:30N 69°42' E 019°02'0 0.0
2019-Mar-29 17:59N 69°42' E 019°02'0 0.0
2019-Mar-29 17:30N 69°42' E 019°02'0 0.0
2019-Mar-29 17:00N 69°42' E 019°02'0 0.0
2019-Mar-29 16:29N 69°42' E 019°02'0 0.0
2019-Mar-29 16:00N 69°42' E 019°02'0 0.0
2019-Mar-29 15:30N 69°42' E 019°02'0 0.0
2019-Mar-29 15:00N 69°42' E 019°02'0 0.0
2019-Mar-29 14:30N 69°42' E 019°02'0 0.0
2019-Mar-29 14:00N 69°42' E 019°02'0 0.0
2019-Mar-29 13:30N 69°42' E 019°02'0 0.0
2019-Mar-29 13:00N 69°42' E 019°02'0 0.0
2019-Mar-29 12:30N 69°42' E 019°02'0 0.0
2019-Mar-29 12:00N 69°42' E 019°02'0 0.0
2019-Mar-29 11:30N 69°42' E 019°02'0 0.0
2019-Mar-29 11:00N 69°42' E 019°02'0 0.0
2019-Mar-29 10:30N 69°42' E 019°02'0 0.0
2019-Mar-29 10:00N 69°42' E 019°02'0 0.0
2019-Mar-29 09:30N 69°42' E 019°02'0 0.0
2019-Mar-29 09:00N 69°42' E 019°02'0 0.0
2019-Mar-29 08:30N 69°42' E 019°02'0 0.0
2019-Mar-29 08:00N 69°42' E 019°02'0 0.0
2019-Mar-29 07:30N 69°42' E 019°02'0 0.0
2019-Mar-29 07:00N 69°42' E 019°02'0 0.0
2019-Mar-29 06:30N 69°42' E 019°02'0 0.0
2019-Mar-29 06:00N 69°42' E 019°02'0 0.0
2019-Mar-29 05:30N 69°42' E 019°02'0 0.0
2019-Mar-29 05:00N 69°42' E 019°02'0 0.0
2019-Mar-29 04:30N 69°42' E 019°02'0 0.0
2019-Mar-29 03:59N 69°42' E 019°02'0 0.0
2019-Mar-29 03:30N 69°42' E 019°02'0 0.0
2019-Mar-29 02:59N 69°42' E 019°02'0 0.0
2019-Mar-29 02:30N 69°42' E 019°02'0 0.0
2019-Mar-29 02:00N 69°42' E 019°02'0 0.0
2019-Mar-29 01:30N 69°42' E 019°02'0 0.0
2019-Mar-29 01:00N 69°42' E 019°02'0 0.0
2019-Mar-29 00:30N 69°42' E 019°02'0 0.0
2019-Mar-29 00:00N 69°42' E 019°02'0 0.0
2019-Mar-28 23:30N 69°42' E 019°02'0 0.0
2019-Mar-28 23:00N 69°42' E 019°02'0 0.0
2019-Mar-28 22:29N 69°42' E 019°02'0 0.0
2019-Mar-28 22:00N 69°42' E 019°02'0 0.0
2019-Mar-28 21:30N 69°42' E 019°02'0 0.0
2019-Mar-28 21:00N 69°42' E 019°02'0 0.0
2019-Mar-28 20:30N 69°42' E 019°02'0 0.0
2019-Mar-28 20:00N 69°42' E 019°02'0 0.0
2019-Mar-28 19:30N 69°42' E 019°02'22 5.5
2019-Mar-28 15:30N 69°60' E 019°42'4 8.2
2019-Mar-28 15:00N 70°03' E 019°36'4 7.0
2019-Mar-28 14:30N 69°60' E 019°33'0 0.3
2019-Mar-28 14:00N 69°60' E 019°34'0 0.0
2019-Mar-28 13:30N 69°60' E 019°34'0 0.0
2019-Mar-28 12:59N 69°60' E 019°34'0 0.0
2019-Mar-28 12:29N 69°60' E 019°34'0 0.0
2019-Mar-28 12:00N 69°60' E 019°34'0 0.0
2019-Mar-28 11:30N 69°60' E 019°34'0 0.0
2019-Mar-28 10:59N 69°60' E 019°34'0 0.0
2019-Mar-28 10:30N 69°60' E 019°34'0 0.0
2019-Mar-28 10:00N 69°60' E 019°34'0 0.0
2019-Mar-28 09:30N 69°60' E 019°34'0 0.0
2019-Mar-28 08:57N 69°60' E 019°34'0 0.0
2019-Mar-28 08:30N 69°60' E 019°34'0 0.0
2019-Mar-28 08:00N 69°60' E 019°34'0 0.0
2019-Mar-28 07:30N 69°60' E 019°34'0 0.0
2019-Mar-28 07:00N 69°60' E 019°34'0 0.0
2019-Mar-28 06:30N 69°60' E 019°34'0 0.0
2019-Mar-28 06:00N 69°60' E 019°34'0 0.0
2019-Mar-28 05:28N 69°60' E 019°34'0 0.0
2019-Mar-28 05:00N 69°60' E 019°34'0 0.0
2019-Mar-28 04:30N 69°60' E 019°34'0 0.0
2019-Mar-28 04:00N 69°60' E 019°34'0 0.0
2019-Mar-28 03:30N 69°60' E 019°34'0 0.0
2019-Mar-28 03:00N 69°60' E 019°34'0 0.0
2019-Mar-28 02:30N 69°60' E 019°34'  

Dump ship's entire track history